Time;durP1;ratioP1;P1;durP2;ratioP2;P2;SDS_P1;SDS_P2;PMS_P1;PMS_P2;Temp;Humidity;BMP_temperature;BMP_pressure;BME280_temperature;BME280_humidity;BME280_pressure;Samples;Min_cycle;Max_cycle;Signal;HPM_P1;HPM_P2
2022/11/08 00:01:57;;;;;;;0.65;0.25;;;12.00;99.90;;;;;;6154919;23;20021;-92
2022/11/08 00:04:25;;;;;;;0.57;0.20;;;12.00;99.90;;;;;;6105908;23;20160;-92
2022/11/08 00:15:07;;;;;;;0.10;0.10;;;12.00;99.90;;;;;;6133808;23;20028;-92
2022/11/08 00:17:33;;;;;;;0.25;0.20;;;11.90;99.90;;;;;;6154824;23;20017;-93
2022/11/08 00:19:58;;;;;;;0.08;0.08;;;11.90;99.90;;;;;;6130099;23;20014;-92
2022/11/08 00:22:24;;;;;;;0.33;0.20;;;12.00;99.90;;;;;;6154289;23;20009;-92
2022/11/08 00:24:50;;;;;;;0.43;0.43;;;12.00;99.90;;;;;;6154507;23;20358;-92
2022/11/08 00:27:22;;;;;;;0.10;0.10;;;12.00;99.90;;;;;;6128764;23;20053;-92
2022/11/08 00:29:48;;;;;;;0.20;0.20;;;12.00;99.90;;;;;;6129743;23;20018;-93
2022/11/08 00:32:21;;;;;;;0.83;0.20;;;12.00;99.90;;;;;;6129934;23;20021;-92
2022/11/08 00:34:48;;;;;;;0.10;0.05;;;12.00;99.90;;;;;;6130322;23;20084;-92
2022/11/08 00:37:14;;;;;;;0.28;0.20;;;11.90;99.90;;;;;;6129421;23;20438;-93
2022/11/08 00:39:40;;;;;;;0.17;0.17;;;11.90;99.90;;;;;;6129235;23;20017;-92
2022/11/08 00:42:06;;;;;;;0.10;0.10;;;12.00;99.90;;;;;;6153809;23;20020;-93
2022/11/08 00:44:32;;;;;;;0.10;0.10;;;12.40;99.90;;;;;;6129659;23;20017;-92
2022/11/08 00:47:01;;;;;;;0.57;0.10;;;11.90;99.90;;;;;;6129395;23;20014;-92
2022/11/08 00:49:27;;;;;;;0.15;0.10;;;11.90;99.90;;;;;;6129899;23;20021;-92
2022/11/08 00:51:52;;;;;;;0.10;0.10;;;11.90;99.90;;;;;;6129850;23;20558;-92
2022/11/08 00:54:21;;;;;;;0.10;0.10;;;11.90;99.90;;;;;;6105102;23;20064;-92
2022/11/08 00:56:48;;;;;;;0.13;0.13;;;11.90;99.90;;;;;;6128925;23;20018;-92
2022/11/08 00:59:15;;;;;;;0.40;0.32;;;11.20;99.90;;;;;;6153354;23;20450;-93
2022/11/08 01:01:42;;;;;;;0.10;0.10;;;11.80;99.90;;;;;;6128407;23;20096;-92
2022/11/08 01:04:11;;;;;;;0.55;0.50;;;11.80;99.90;;;;;;6129396;23;20084;-92
2022/11/08 01:06:38;;;;;;;0.22;0.20;;;11.80;99.90;;;;;;6129979;23;20291;-92
2022/11/08 01:09:09;;;;;;;1.25;0.10;;;11.70;99.90;;;;;;6154060;23;20021;-92
2022/11/08 01:11:35;;;;;;;0.10;0.10;;;11.20;99.90;;;;;;6129639;23;20172;-92
2022/11/08 01:14:01;;;;;;;0.10;0.10;;;11.70;99.90;;;;;;6129747;23;20454;-92
2022/11/08 01:16:32;;;;;;;0.50;0.20;;;11.70;99.90;;;;;;6104458;23;20505;-92
2022/11/08 01:19:03;;;;;;;0.40;0.40;;;11.60;99.90;;;;;;6154080;23;20088;-92
2022/11/08 01:21:29;;;;;;;0.40;0.17;;;11.60;99.90;;;;;;6129904;23;20013;-92
2022/11/08 01:24:00;;;;;;;0.10;0.10;;;11.60;99.90;;;;;;6130042;23;20014;-92
2022/11/08 01:26:31;;;;;;;0.17;0.17;;;11.60;99.90;;;;;;6129968;23;20481;-92
2022/11/08 01:28:57;;;;;;;0.10;0.10;;;11.60;99.90;;;;;;6153497;23;20014;-92
2022/11/08 01:31:26;;;;;;;0.00;0.00;;;11.50;99.90;;;;;;6129289;23;20100;-92
2022/11/08 01:33:53;;;;;;;0.10;0.08;;;11.50;99.90;;;;;;6129865;23;20076;-92
2022/11/08 01:36:22;;;;;;;0.08;0.03;;;11.50;99.90;;;;;;6153876;23;20047;-92
2022/11/08 01:38:48;;;;;;;0.10;0.10;;;11.40;99.90;;;;;;6129269;23;20088;-92
2022/11/08 01:41:18;;;;;;;0.28;0.28;;;11.40;99.90;;;;;;6129191;23;20063;-93
2022/11/08 01:43:55;;;;;;;0.10;0.10;;;11.40;99.90;;;;;;6105786;23;20018;-92
2022/11/08 01:46:54;;;;;;;0.70;0.20;;;11.40;99.90;;;;;;6129354;23;20056;-92
2022/11/08 01:49:33;;;;;;;0.22;0.22;;;11.30;99.90;;;;;;6117139;23;20020;-93
2022/11/08 01:52:08;;;;;;;0.35;0.25;;;11.40;99.90;;;;;;6154332;23;20017;-94
2022/11/08 01:54:36;;;;;;;0.20;0.20;;;11.40;99.90;;;;;;6153258;23;20049;-92
2022/11/08 01:57:07;;;;;;;0.20;0.20;;;11.40;99.90;;;;;;6129015;23;20021;-93
2022/11/08 01:59:37;;;;;;;0.10;0.10;;;11.40;99.90;;;;;;6153306;23;20013;-93
2022/11/08 02:02:03;;;;;;;0.10;0.10;;;11.30;99.90;;;;;;6129484;23;20013;-91
2022/11/08 02:04:29;;;;;;;0.00;0.00;;;11.20;99.90;;;;;;6153454;23;20013;-93
2022/11/08 02:06:55;;;;;;;0.03;0.03;;;11.20;99.90;;;;;;6129150;23;20096;-92
2022/11/08 02:09:24;;;;;;;0.45;0.45;;;11.20;99.90;;;;;;6128500;23;20009;-92
2022/11/08 02:11:54;;;;;;;0.15;0.15;;;10.70;99.90;;;;;;6104960;23;20018;-92
2022/11/08 02:14:20;;;;;;;0.38;0.38;;;11.20;99.90;;;;;;6130452;23;20069;-92
2022/11/08 02:16:49;;;;;;;0.20;0.10;;;11.20;99.90;;;;;;6130999;23;20017;-92
2022/11/08 02:19:39;;;;;;;0.20;0.05;;;11.10;99.90;;;;;;6155617;23;20013;-92
2022/11/08 02:22:26;;;;;;;0.15;0.08;;;11.10;99.90;;;;;;6131143;23;20329;-93
2022/11/08 02:24:53;;;;;;;0.00;0.00;;;11.10;99.90;;;;;;6156070;23;20010;-93
2022/11/08 02:27:21;;;;;;;0.00;0.00;;;11.10;99.90;;;;;;6156023;23;20016;-92
2022/11/08 02:29:55;;;;;;;0.00;0.00;;;11.00;99.90;;;;;;6157166;23;20350;-93
2022/11/08 02:32:21;;;;;;;0.17;0.17;;;11.10;99.90;;;;;;6135865;23;20013;-93
2022/11/08 02:34:56;;;;;;;;;;;10.90;99.90;;;;;;6136169;23;20013;-92
2022/11/08 02:37:22;;;;;;;0.20;0.20;;;10.90;99.90;;;;;;6136003;23;19918;-93
2022/11/08 02:39:48;;;;;;;0.20;0.20;;;10.90;99.90;;;;;;6136239;23;20489;-93
2022/11/08 02:42:19;;;;;;;0.00;0.00;;;10.80;99.90;;;;;;6160902;23;20051;-93
2022/11/08 02:44:45;;;;;;;0.20;0.20;;;10.80;99.90;;;;;;6135378;23;20009;-92
2022/11/08 02:47:14;;;;;;;;;;;10.90;99.90;;;;;;6112184;23;20013;-92
2022/11/08 02:49:40;;;;;;;0.10;0.10;;;10.60;99.90;;;;;;6135596;23;19912;-92
2022/11/08 02:52:06;;;;;;;0.57;0.30;;;10.90;99.90;;;;;;6160883;23;20080;-93
2022/11/08 02:54:34;;;;;;;0.10;0.10;;;10.80;99.90;;;;;;6135799;23;20017;-92
2022/11/08 02:57:02;;;;;;;0.13;0.10;;;10.70;99.90;;;;;;6160413;23;20015;-92
2022/11/08 02:59:28;;;;;;;0.20;0.17;;;10.80;99.90;;;;;;6160252;23;20053;-92
2022/11/08 03:01:54;;;;;;;0.20;0.17;;;10.70;99.90;;;;;;6135677;23;20330;-93
2022/11/08 03:04:20;;;;;;;0.13;0.10;;;10.80;99.90;;;;;;6135792;23;20016;-92
2022/11/08 03:06:46;;;;;;;0.10;0.10;;;10.80;99.90;;;;;;6135478;23;20172;-93
2022/11/08 03:09:14;;;;;;;0.50;0.50;;;10.80;99.90;;;;;;6111369;23;20240;-93
2022/11/08 03:11:44;;;;;;;0.10;0.10;;;10.70;99.90;;;;;;6134867;23;20013;-93
2022/11/08 03:14:10;;;;;;;0.20;0.10;;;10.70;99.90;;;;;;6136020;23;20009;-93
2022/11/08 03:16:35;;;;;;;0.10;0.10;;;9.80;99.90;;;;;;6134968;23;20117;-92
2022/11/08 03:19:01;;;;;;;1.03;0.17;;;10.60;99.90;;;;;;6136036;23;20013;-93
2022/11/08 03:21:27;;;;;;;0.00;0.00;;;11.00;99.90;;;;;;6159815;23;20020;-93
2022/11/08 03:23:53;;;;;;;0.13;0.13;;;10.80;99.90;;;;;;6111387;23;20013;-92
2022/11/08 03:26:18;;;;;;;0.47;0.20;;;10.70;99.90;;;;;;6135479;23;20044;-92
2022/11/08 03:28:44;;;;;;;0.40;0.40;;;10.80;99.90;;;;;;6135135;23;20019;-93
2022/11/08 03:31:10;;;;;;;0.50;0.40;;;10.70;99.90;;;;;;6134824;23;20432;-93
2022/11/08 03:33:36;;;;;;;0.20;0.10;;;10.70;99.90;;;;;;6160050;23;20329;-92
2022/11/08 03:36:04;;;;;;;1.10;0.20;;;10.70;99.90;;;;;;6134928;23;20112;-92
2022/11/08 03:38:32;;;;;;;0.08;0.00;;;10.70;99.90;;;;;;6111578;23;20024;-93
2022/11/08 03:41:00;;;;;;;0.77;0.65;;;10.60;99.90;;;;;;6135351;23;20036;-93
2022/11/08 03:43:26;;;;;;;0.13;0.13;;;10.60;99.90;;;;;;6111186;23;20460;-93
2022/11/08 03:45:52;;;;;;;0.43;0.17;;;10.60;99.90;;;;;;6134612;23;20021;-92
2022/11/08 03:48:17;;;;;;;0.57;0.20;;;10.60;99.90;;;;;;6135317;23;20013;-93
2022/11/08 03:50:44;;;;;;;0.40;0.20;;;10.60;99.90;;;;;;6134773;23;20023;-93
2022/11/08 03:53:10;;;;;;;0.30;0.20;;;10.50;99.90;;;;;;6134889;23;20381;-93
2022/11/08 03:55:38;;;;;;;0.30;0.20;;;10.50;99.90;;;;;;6135003;23;20044;-92
2022/11/08 03:58:07;;;;;;;0.30;0.30;;;10.50;99.90;;;;;;6159175;23;20028;-92
2022/11/08 04:00:35;;;;;;;0.43;0.22;;;10.50;99.90;;;;;;6135302;23;20337;-92
2022/11/08 04:03:02;;;;;;;0.10;0.10;;;10.40;99.90;;;;;;6133935;23;20021;-92
2022/11/08 04:05:31;;;;;;;0.50;0.50;;;10.40;99.90;;;;;;6135040;23;20009;-92
2022/11/08 04:07:58;;;;;;;2.10;0.25;;;10.40;99.90;;;;;;6159187;23;20437;-93
2022/11/08 04:10:26;;;;;;;0.10;0.10;;;10.40;99.90;;;;;;6159835;23;20446;-92
2022/11/08 04:15:36;;;;;;;1.27;0.45;;;10.30;99.90;;;;;;6159433;23;20099;-92
2022/11/08 04:23:33;;;;;;;0.60;0.28;;;10.10;99.90;;;;;;6159346;23;20020;-93
2022/11/08 04:26:02;;;;;;;0.38;0.38;;;10.30;99.90;;;;;;6159944;23;20013;-92
2022/11/08 04:28:30;;;;;;;0.10;0.10;;;10.30;99.90;;;;;;6133999;23;20021;-93
2022/11/08 04:31:02;;;;;;;0.40;0.17;;;10.30;99.90;;;;;;6158978;23;20019;-92
2022/11/08 04:33:28;;;;;;;0.10;0.10;;;10.30;99.90;;;;;;6159053;23;20020;-93
2022/11/08 04:35:54;;;;;;;0.00;0.00;;;10.30;99.90;;;;;;6110252;23;20021;-92
2022/11/08 04:38:20;;;;;;;0.07;0.07;;;10.70;99.90;;;;;;6159213;23;20036;-92
2022/11/08 04:40:46;;;;;;;0.38;0.17;;;10.30;99.90;;;;;;6110466;23;20329;-92
2022/11/08 04:43:12;;;;;;;0.10;0.10;;;10.30;99.90;;;;;;6159242;23;20015;-92
2022/11/08 04:45:39;;;;;;;0.20;0.20;;;10.30;99.90;;;;;;6159072;23;20041;-93
2022/11/08 04:48:05;;;;;;;0.32;0.28;;;10.30;99.90;;;;;;6158858;23;20020;-92
2022/11/08 04:50:31;;;;;;;0.55;0.20;;;9.70;99.90;;;;;;6110372;23;20020;-92
2022/11/08 04:52:57;;;;;;;0.73;0.47;;;10.40;99.90;;;;;;6134454;23;20099;-92
2022/11/08 04:55:23;;;;;;;0.00;0.00;;;10.30;99.90;;;;;;6134623;23;20020;-92
2022/11/08 04:57:49;;;;;;;0.28;0.28;;;10.40;99.90;;;;;;6133647;23;20005;-93
2022/11/08 05:00:16;;;;;;;1.25;0.10;;;10.40;99.90;;;;;;6159280;23;20451;-92
2022/11/08 05:02:42;;;;;;;0.32;0.10;;;10.40;99.90;;;;;;6134279;23;20043;-92
2022/11/08 05:05:08;;;;;;;0.40;0.22;;;9.70;99.90;;;;;;6158986;23;20009;-92
2022/11/08 05:07:34;;;;;;;0.10;0.10;;;10.40;99.90;;;;;;6134863;23;20087;-91
2022/11/08 05:10:02;;;;;;;0.20;0.10;;;10.40;99.90;;;;;;6134041;23;20592;-92
2022/11/08 05:12:28;;;;;;;0.17;0.17;;;10.30;99.90;;;;;;6134594;23;20017;-92
2022/11/08 05:15:01;;;;;;;0.20;0.20;;;10.40;99.90;;;;;;6133999;23;20020;-92
2022/11/08 05:17:29;;;;;;;0.20;0.20;;;10.30;99.90;;;;;;6134500;23;20017;-92
2022/11/08 05:25:24;;;;;;;0.65;0.20;;;10.30;99.90;;;;;;6137723;23;20013;-91
2022/11/08 05:27:49;;;;;;;0.10;0.10;;;10.30;99.90;;;;;;6134015;23;20016;-92
2022/11/08 05:30:15;;;;;;;0.13;0.13;;;10.30;99.90;;;;;;6133922;23;20051;-92
2022/11/08 05:32:41;;;;;;;0.10;0.10;;;10.30;99.90;;;;;;6129089;23;20017;-91
2022/11/08 05:35:07;;;;;;;0.43;0.40;;;10.30;99.90;;;;;;6128802;23;20017;-92
2022/11/08 05:37:32;;;;;;;0.10;0.10;;;10.30;99.90;;;;;;6129552;23;20121;-92
2022/11/08 05:39:58;;;;;;;0.20;0.20;;;10.30;99.90;;;;;;6104394;23;20021;-91
2022/11/08 05:42:28;;;;;;;0.33;0.20;;;10.30;99.90;;;;;;6129528;23;20100;-92
2022/11/08 05:44:54;;;;;;;0.52;0.40;;;10.40;99.90;;;;;;6128574;23;20040;-92
2022/11/08 05:47:25;;;;;;;1.13;0.20;;;10.30;99.90;;;;;;6128817;23;20017;-91
2022/11/08 05:49:50;;;;;;;0.15;0.13;;;10.40;99.90;;;;;;6153202;23;20053;-91
2022/11/08 05:52:16;;;;;;;0.10;0.10;;;10.30;99.90;;;;;;6153568;23;20019;-91
2022/11/08 05:54:42;;;;;;;0.10;0.10;;;9.50;99.90;;;;;;6153685;23;20429;-92
2022/11/08 05:57:11;;;;;;;0.10;0.07;;;10.60;99.90;;;;;;6128028;23;20013;-91
2022/11/08 05:59:36;;;;;;;0.15;0.10;;;10.20;99.90;;;;;;6128932;23;20014;-91
2022/11/08 06:02:02;;;;;;;0.20;0.13;;;10.30;99.90;;;;;;6153243;23;20016;-91
2022/11/08 06:04:28;;;;;;;0.10;0.07;;;10.20;99.90;;;;;;6129101;23;20498;-91
2022/11/08 06:06:56;;;;;;;0.43;0.37;;;10.10;99.90;;;;;;6104346;23;20022;-92
2022/11/08 06:09:25;;;;;;;0.20;0.20;;;10.20;99.90;;;;;;6128497;23;20514;-92
2022/11/08 06:11:50;;;;;;;0.20;0.20;;;9.00;99.90;;;;;;6128603;23;20013;-92
2022/11/08 06:14:16;;;;;;;0.20;0.10;;;10.10;99.90;;;;;;6129071;23;20100;-92
2022/11/08 06:16:44;;;;;;;0.13;0.13;;;10.10;99.90;;;;;;6104985;23;20017;-92
2022/11/08 06:19:10;;;;;;;0.15;0.15;;;10.00;99.90;;;;;;6128889;23;20035;-92
2022/11/08 06:21:36;;;;;;;1.97;0.10;;;10.00;99.90;;;;;;6128774;23;20449;-92
2022/11/08 06:24:02;;;;;;;0.10;0.10;;;10.00;99.90;;;;;;6128611;23;20006;-92
2022/11/08 06:26:28;;;;;;;0.10;0.10;;;10.00;99.90;;;;;;6128959;23;20013;-92
2022/11/08 06:28:54;;;;;;;0.05;0.05;;;10.00;99.90;;;;;;6153756;23;20013;-91
2022/11/08 06:31:19;;;;;;;0.20;0.20;;;9.90;99.90;;;;;;6132075;23;20322;-91
2022/11/08 06:34:26;;;;;;;0.13;0.13;;;10.20;99.90;;;;;;6110553;23;20259;-91
2022/11/08 06:40:37;;;;;;;0.25;0.20;;;10.00;99.90;;;;;;6185538;23;20044;-90
2022/11/08 06:43:06;;;;;;;0.45;0.22;;;10.00;99.90;;;;;;6135340;23;20091;-89
2022/11/08 06:45:32;;;;;;;0.57;0.32;;;10.00;99.90;;;;;;6135945;23;20009;-89
2022/11/08 06:47:59;;;;;;;0.10;0.10;;;10.00;99.90;;;;;;6111136;23;20019;-95
2022/11/08 06:50:25;;;;;;;0.10;0.10;;;10.10;99.90;;;;;;6134629;23;20437;-93
2022/11/08 06:53:02;;;;;;;0.20;0.20;;;10.60;99.90;;;;;;6135132;23;20013;-93
2022/11/08 06:55:29;;;;;;;0.10;0.10;;;10.10;99.90;;;;;;6160752;23;20354;-94
2022/11/08 06:57:54;;;;;;;0.20;0.10;;;10.30;99.90;;;;;;6135357;23;20021;-92
2022/11/08 07:00:21;;;;;;;0.20;0.20;;;10.10;99.90;;;;;;6134669;23;20072;-92
2022/11/08 07:03:00;;;;;;;0.20;0.20;;;10.10;99.90;;;;;;6160220;23;20017;-93
2022/11/08 07:05:37;;;;;;;0.55;0.20;;;10.10;99.90;;;;;;6153563;23;20069;-96
2022/11/08 07:08:20;;;;;;;0.20;0.20;;;10.10;99.90;;;;;;6159349;23;20028;-96
2022/11/08 07:10:46;;;;;;;0.20;0.20;;;10.10;99.90;;;;;;6156591;23;20087;-93
2022/11/08 07:13:32;;;;;;;0.20;0.20;;;10.10;99.90;;;;;;6143288;23;20025;-95
2022/11/08 07:16:20;;;;;;;0.20;0.20;;;9.60;99.90;;;;;;6170777;23;20017;-95
2022/11/08 07:18:50;;;;;;;0.98;0.93;;;9.60;99.90;;;;;;6123121;23;20097;-92
2022/11/08 07:21:24;;;;;;;0.77;0.28;;;9.20;99.90;;;;;;6135385;23;20024;-94
2022/11/08 07:24:02;;;;;;;;;;;10.30;99.90;;;;;;6139579;23;20020;-96
2022/11/08 07:26:28;;;;;;;0.13;0.10;;;10.30;99.90;;;;;;6152462;23;19955;-96
2022/11/08 07:29:04;;;;;;;0.13;0.13;;;10.30;99.90;;;;;;6144425;23;20052;-96
2022/11/08 07:35:11;;;;;;;0.20;0.20;;;9.70;99.90;;;;;;6157357;23;20026;-93
2022/11/08 07:37:42;;;;;;;0.00;0.00;;;10.40;99.90;;;;;;6085265;23;20030;-96
2022/11/08 07:43:28;;;;;;;;;;;;;;;;;;;;;
2022/11/08 07:46:17;;;;;;;0.30;0.30;;;9.60;99.90;;;;;;6109738;23;20021;-96
2022/11/08 07:49:17;;;;;;;1.02;0.25;;;10.50;99.90;;;;;;6108889;23;20018;-96
2022/11/08 08:00:30;;;;;;;0.50;0.50;;;10.70;99.90;;;;;;6153016;23;20029;-96
2022/11/08 08:06:14;;;;;;;0.10;0.10;;;10.80;99.90;;;;;;6129345;23;20105;-96
2022/11/08 08:09:01;;;;;;;0.10;0.10;;;10.90;99.90;;;;;;6091953;23;20025;-96
2022/11/08 08:11:32;;;;;;;0.28;0.10;;;10.90;99.90;;;;;;6089963;23;20013;-96
2022/11/08 08:14:12;;;;;;;0.20;0.20;;;10.90;99.90;;;;;;6093935;23;20021;-96
2022/11/08 08:17:03;;;;;;;0.28;0.20;;;11.10;99.90;;;;;;6071050;23;20049;-96
2022/11/08 08:19:31;;;;;;;0.10;0.10;;;11.00;99.90;;;;;;6115589;23;20032;-96
2022/11/08 08:21:59;;;;;;;1.38;0.30;;;10.80;99.90;;;;;;6106286;23;20018;-96
2022/11/08 08:24:35;;;;;;;0.10;0.10;;;11.20;99.90;;;;;;6083567;23;20021;-96
2022/11/08 08:27:10;;;;;;;0.25;0.20;;;10.50;99.90;;;;;;6090299;23;20028;-96
2022/11/08 08:30:04;;;;;;;0.13;0.10;;;11.30;99.90;;;;;;6113772;23;20417;-96
2022/11/08 08:40:16;;;;;;;0.20;0.20;;;11.60;99.90;;;;;;6126442;23;20025;-94
2022/11/08 08:42:47;;;;;;;0.10;0.10;;;11.70;99.90;;;;;;6077535;23;20014;-95
2022/11/08 08:48:34;;;;;;;0.25;0.25;;;11.50;99.90;;;;;;6127273;23;20045;-94
2022/11/08 10:45:34;;;;;;;0.10;0.10;;;13.50;99.90;;;;;;6026635;23;4039275;-88
2022/11/08 10:48:00;;;;;;;0.30;0.30;;;13.50;99.90;;;;;;6196984;23;20024;-88
2022/11/08 10:50:38;;;;;;;0.00;0.00;;;13.40;99.90;;;;;;6196671;23;20017;-88
2022/11/08 10:53:10;;;;;;;0.10;0.10;;;13.40;99.90;;;;;;6196925;23;20021;-90
2022/11/08 10:55:46;;;;;;;1.55;0.35;;;13.50;99.90;;;;;;6195870;23;20027;-91
2022/11/08 10:58:48;;;;;;;0.45;0.22;;;13.30;99.90;;;;;;6196668;23;20013;-92
2022/11/08 11:01:18;;;;;;;0.10;0.10;;;13.20;99.90;;;;;;6030765;23;20093;-90
2022/11/08 11:03:45;;;;;;;0.10;0.10;;;13.20;99.90;;;;;;6077212;23;20014;-90
2022/11/08 11:06:31;;;;;;;0.10;0.10;;;13.20;99.90;;;;;;6077296;23;20098;-90
2022/11/08 11:09:18;;;;;;;0.25;0.20;;;13.10;99.90;;;;;;6115600;23;20016;-92
2022/11/08 11:32:05;;;;;;;;;;;;;;;;;;;;;
2022/11/08 11:43:46;;;;;;;;;;;;;;;;;;;;;
2022/11/08 11:50:28;;;;;;;1.75;0.30;;;12.80;99.90;;;;;;6097271;23;20030;-94
2022/11/08 11:52:59;;;;;;;;;;;13.60;99.90;;;;;;6049838;23;20061;-87
2022/11/08 11:55:52;;;;;;;0.10;0.08;;;13.60;99.90;;;;;;6023076;23;20275;-92
2022/11/08 11:58:45;;;;;;;0.03;0.03;;;13.70;99.90;;;;;;6157963;23;20021;-92
2022/11/08 12:08:34;;;;;;;;;;;;;;;;;;;;;
2022/11/08 12:11:22;;;;;;;0.10;0.10;;;13.70;99.90;;;;;;6102466;23;20024;-95
2022/11/08 12:14:12;;;;;;;0.00;0.00;;;13.60;99.90;;;;;;6158938;23;20099;-96
2022/11/08 12:16:56;;;;;;;0.25;0.10;;;14.00;99.90;;;;;;6168616;23;20013;-94
2022/11/08 12:19:59;;;;;;;0.15;0.13;;;14.30;99.90;;;;;;6166038;23;20401;-95
2022/11/08 12:22:43;;;;;;;0.28;0.28;;;14.50;99.90;;;;;;6166167;23;20012;-94
2022/11/08 12:25:24;;;;;;;0.20;0.20;;;14.60;99.90;;;;;;6172138;23;20021;-95
2022/11/08 12:28:03;;;;;;;0.55;0.28;;;14.60;99.90;;;;;;6196351;23;20020;-95
2022/11/08 12:30:42;;;;;;;0.40;0.20;;;14.50;99.90;;;;;;6166573;23;20039;-93
2022/11/08 12:33:29;;;;;;;0.10;0.10;;;14.40;99.90;;;;;;6168460;23;20016;-96
2022/11/08 12:36:15;;;;;;;0.50;0.10;;;14.40;99.90;;;;;;6169444;23;20017;-96
2022/11/08 12:39:12;;;;;;;0.10;0.10;;;14.20;99.90;;;;;;6191544;23;20021;-96
2022/11/08 12:41:55;;;;;;;0.08;0.08;;;14.10;99.90;;;;;;6167835;23;20020;-96
2022/11/08 12:44:33;;;;;;;0.20;0.20;;;14.90;99.90;;;;;;6173679;23;20016;-96
2022/11/08 12:47:34;;;;;;;0.28;0.20;;;14.00;99.90;;;;;;6166433;23;20068;-96
2022/11/08 12:50:32;;;;;;;0.20;0.20;;;14.00;99.90;;;;;;6143112;23;20164;-96
2022/11/08 12:53:22;;;;;;;0.15;0.15;;;13.80;99.90;;;;;;6165939;23;20035;-95
2022/11/08 12:55:51;;;;;;;0.28;0.28;;;13.80;99.90;;;;;;6165334;23;20021;-95
2022/11/08 12:58:29;;;;;;;0.20;0.20;;;13.90;99.90;;;;;;6165354;23;20047;-95
2022/11/08 13:01:08;;;;;;;0.00;0.00;;;13.80;99.90;;;;;;6165381;23;20013;-96
2022/11/08 13:03:48;;;;;;;0.10;0.10;;;13.90;99.90;;;;;;6165499;23;20024;-96
2022/11/08 13:06:39;;;;;;;0.20;0.20;;;14.00;99.90;;;;;;6165973;23;20016;-94
2022/11/08 13:09:20;;;;;;;0.13;0.13;;;13.40;99.90;;;;;;6165118;23;20013;-95
2022/11/08 13:12:15;;;;;;;0.08;0.08;;;14.30;99.90;;;;;;6165085;23;20020;-95
2022/11/08 13:14:43;;;;;;;0.40;0.10;;;14.20;99.90;;;;;;6165774;23;20017;-96
2022/11/08 13:17:29;;;;;;;0.20;0.20;;;14.30;99.90;;;;;;6164940;23;20072;-93
2022/11/08 13:19:59;;;;;;;0.20;0.20;;;14.50;99.90;;;;;;6164419;23;20016;-93
2022/11/08 13:22:28;;;;;;;0.08;0.08;;;14.70;99.90;;;;;;6188859;23;20522;-91
2022/11/08 13:24:58;;;;;;;0.30;0.30;;;15.00;99.90;;;;;;6163490;23;20095;-91
2022/11/08 13:27:30;;;;;;;0.00;0.00;;;15.00;99.90;;;;;;6163830;23;20019;-91
2022/11/08 13:30:00;;;;;;;0.10;0.10;;;15.00;99.90;;;;;;6163731;23;20023;-92
2022/11/08 13:32:43;;;;;;;0.17;0.17;;;14.00;99.90;;;;;;6164269;23;20056;-91
2022/11/08 13:35:14;;;;;;;0.10;0.10;;;15.00;99.90;;;;;;6163868;23;20043;-94
2022/11/08 13:38:02;;;;;;;0.10;0.10;;;15.00;99.90;;;;;;6163783;23;20070;-92
2022/11/08 13:40:30;;;;;;;0.10;0.10;;;15.00;99.90;;;;;;6189294;23;20013;-93
2022/11/08 13:43:15;;;;;;;0.40;0.40;;;15.00;99.90;;;;;;6163625;23;20337;-92
2022/11/08 13:45:42;;;;;;;0.00;0.00;;;14.80;99.90;;;;;;6164246;23;20095;-92
2022/11/08 13:48:34;;;;;;;0.00;0.00;;;14.70;99.90;;;;;;6163019;23;20193;-91
2022/11/08 13:51:24;;;;;;;0.43;0.20;;;14.50;99.90;;;;;;6150904;23;20020;-91
2022/11/08 13:53:53;;;;;;;0.13;0.13;;;14.30;99.90;;;;;;6188536;23;20051;-92
2022/11/08 13:56:58;;;;;;;0.10;0.10;;;14.30;99.90;;;;;;6189302;23;20387;-93
2022/11/08 13:59:30;;;;;;;0.50;0.50;;;14.20;99.90;;;;;;6069827;23;20021;-91
2022/11/08 14:02:25;;;;;;;0.20;0.15;;;14.20;99.90;;;;;;6045693;23;20015;-93
2022/11/08 14:04:52;;;;;;;0.38;0.38;;;14.10;99.90;;;;;;6154371;23;20082;-92
2022/11/08 14:07:47;;;;;;;0.10;0.10;;;14.00;99.90;;;;;;6189027;23;20465;-92
2022/11/08 14:10:37;;;;;;;0.03;0.03;;;13.90;99.90;;;;;;6163789;23;20056;-93
2022/11/08 14:13:19;;;;;;;0.10;0.10;;;13.90;99.90;;;;;;6163799;23;20012;-93
2022/11/08 14:16:04;;;;;;;0.22;0.10;;;13.80;99.90;;;;;;6164339;23;20016;-92
2022/11/08 14:18:37;;;;;;;0.10;0.10;;;13.80;99.90;;;;;;6176611;23;20103;-93
2022/11/08 14:21:07;;;;;;;0.10;0.10;;;13.80;99.90;;;;;;6166093;23;20519;-93
2022/11/08 14:23:39;;;;;;;0.10;0.10;;;13.80;99.90;;;;;;6164801;23;20023;-93
2022/11/08 14:26:11;;;;;;;0.10;0.10;;;13.80;99.90;;;;;;6163902;23;20054;-92
2022/11/08 14:28:44;;;;;;;0.20;0.10;;;13.80;99.90;;;;;;6164257;23;20074;-92
2022/11/08 14:31:32;;;;;;;0.20;0.15;;;13.90;99.90;;;;;;6166503;23;20021;-93
2022/11/08 14:34:00;;;;;;;0.00;0.00;;;13.80;99.90;;;;;;6193482;23;20081;-91
2022/11/08 14:36:28;;;;;;;0.00;0.00;;;13.80;99.90;;;;;;6198062;23;20091;-93
2022/11/08 15:02:13;;;;;;;1.25;0.10;;;13.60;99.90;;;;;;6216237;22;20084;31
2022/11/08 15:09:21;;;;;;;0.70;0.45;;;12.80;99.90;;;;;;6011428;23;20071;-90
2022/11/08 15:12:37;;;;;;;;;;;;;;;;;;;;;
2022/11/08 15:27:49;;;;;;;0.08;0.00;;;14.20;99.90;;;;;;6024380;23;20021;-91
2022/11/08 15:49:44;;;;;;;;;;;;;;;;;;;;;
2022/11/08 16:07:57;;;;;;;;;;;;;;;;;;;;;
2022/11/08 16:11:40;;;;;;;;;;;;;;;;;;;;;
2022/11/08 16:14:27;;;;;;;0.63;0.30;;;12.60;99.90;;;;;;5796750;24;20104;-92
2022/11/08 16:16:56;;;;;;;0.10;0.10;;;13.20;99.90;;;;;;5851874;24;20057;-90
2022/11/08 16:19:25;;;;;;;0.10;0.10;;;13.20;99.90;;;;;;5949013;23;20023;-89
2022/11/08 16:21:56;;;;;;;0.05;0.05;;;13.20;99.90;;;;;;6073007;23;20018;-89
2022/11/08 16:24:22;;;;;;;0.65;0.40;;;13.20;99.90;;;;;;6051855;23;20021;-89
2022/11/08 16:26:48;;;;;;;0.53;0.20;;;13.30;99.90;;;;;;6075460;23;20520;-89
2022/11/08 16:29:21;;;;;;;0.37;0.37;;;13.20;99.90;;;;;;6075564;23;20026;-96
2022/11/08 16:31:49;;;;;;;0.15;0.15;;;13.20;99.90;;;;;;6052090;23;20253;-90
2022/11/08 16:34:14;;;;;;;0.22;0.22;;;13.20;99.90;;;;;;6075847;23;20060;-89
2022/11/08 16:36:46;;;;;;;0.10;0.10;;;12.50;99.90;;;;;;6075932;23;20025;-93
2022/11/08 16:39:27;;;;;;;0.10;0.10;;;13.30;99.90;;;;;;6054276;23;20018;-94
2022/11/08 16:41:53;;;;;;;0.20;0.13;;;13.20;99.90;;;;;;6052868;23;20018;-90
2022/11/08 16:44:21;;;;;;;0.43;0.20;;;13.20;99.90;;;;;;6076030;23;20437;-90
2022/11/08 16:47:00;;;;;;;0.10;0.10;;;13.30;99.90;;;;;;6075596;23;20466;-96
2022/11/08 16:49:37;;;;;;;0.63;0.50;;;14.30;99.90;;;;;;6075966;23;20042;-95
2022/11/08 16:52:20;;;;;;;0.10;0.10;;;13.30;99.90;;;;;;6104757;23;20403;-91
2022/11/08 16:54:49;;;;;;;0.07;0.07;;;13.20;99.90;;;;;;6078139;23;20057;-90
2022/11/08 16:57:17;;;;;;;0.10;0.10;;;13.20;99.90;;;;;;6075079;23;20022;-90
2022/11/08 16:59:50;;;;;;;0.13;0.13;;;12.30;99.90;;;;;;6076174;23;20018;-95
2022/11/08 17:02:48;;;;;;;0.17;0.03;;;13.20;99.90;;;;;;6052482;23;20466;-93
2022/11/08 17:05:22;;;;;;;0.30;0.30;;;13.10;99.90;;;;;;6072550;23;20390;-94
2022/11/08 17:08:01;;;;;;;0.10;0.10;;;13.10;99.90;;;;;;6101013;23;20022;-95
2022/11/08 17:10:30;;;;;;;0.10;0.10;;;13.10;99.90;;;;;;6077733;23;20025;-94
2022/11/08 17:12:59;;;;;;;0.03;0.03;;;13.10;99.90;;;;;;6100335;23;20141;-95
2022/11/08 17:15:26;;;;;;;0.20;0.10;;;13.20;99.90;;;;;;6100267;23;20025;-92
2022/11/08 17:17:54;;;;;;;0.22;0.10;;;13.10;99.90;;;;;;6100137;23;20072;-92
2022/11/08 17:20:21;;;;;;;0.00;0.00;;;12.40;99.90;;;;;;6099135;23;20018;-93
2022/11/08 17:22:48;;;;;;;0.20;0.13;;;13.00;99.90;;;;;;6099874;23;20469;-93
2022/11/08 17:25:20;;;;;;;0.20;0.20;;;12.90;99.90;;;;;;6099650;23;20022;-94
2022/11/08 17:27:49;;;;;;;0.20;0.20;;;12.90;99.90;;;;;;6099169;23;20467;-91
2022/11/08 17:30:18;;;;;;;0.25;0.10;;;13.00;99.90;;;;;;6099596;23;20447;-92
2022/11/08 17:32:44;;;;;;;0.50;0.47;;;12.90;99.90;;;;;;6099202;23;20097;-94
2022/11/08 17:35:11;;;;;;;0.20;0.20;;;12.80;99.90;;;;;;6099244;23;20022;-89
2022/11/08 17:37:37;;;;;;;0.13;0.13;;;12.90;99.90;;;;;;6100145;23;20446;-91
2022/11/08 17:40:10;;;;;;;0.00;0.00;;;12.80;99.90;;;;;;6127238;23;20017;-96
2022/11/08 17:42:37;;;;;;;0.65;0.50;;;12.80;99.90;;;;;;6125360;23;20018;-91
2022/11/08 17:45:09;;;;;;;0.10;0.10;;;12.80;99.90;;;;;;6075910;23;20073;-95
2022/11/08 17:47:35;;;;;;;0.10;0.10;;;12.80;99.90;;;;;;6099348;23;20025;-94
2022/11/08 17:50:04;;;;;;;0.10;0.10;;;12.70;99.90;;;;;;6100091;23;20032;-95
2022/11/08 17:52:37;;;;;;;0.05;0.05;;;12.80;99.90;;;;;;6099054;23;20025;-94
2022/11/08 17:55:07;;;;;;;0.10;0.10;;;12.70;99.90;;;;;;6055438;23;20022;-91
2022/11/08 17:57:33;;;;;;;0.00;0.00;;;12.70;99.90;;;;;;6099735;23;20077;-93
2022/11/08 18:00:01;;;;;;;0.57;0.30;;;12.70;99.90;;;;;;6099859;23;20151;-92
2022/11/08 18:02:27;;;;;;;0.30;0.30;;;12.00;99.90;;;;;;6098528;23;20026;-91
2022/11/08 18:04:56;;;;;;;0.20;0.10;;;12.80;99.90;;;;;;6074630;23;20025;-90
2022/11/08 18:07:23;;;;;;;0.08;0.08;;;12.20;99.90;;;;;;6099160;23;20101;-92
2022/11/08 18:09:49;;;;;;;0.30;0.10;;;12.80;99.90;;;;;;6099899;23;20072;-94
2022/11/08 18:12:17;;;;;;;0.00;0.00;;;12.80;99.90;;;;;;6100200;23;20014;-93